Weather History for Hurlburt Field, FL

Change the Weather History Date:

Friday, October 5, 2012

  Actual Average Record
Temperature  
Mean Temperature 74 °F -  
Max Temperature 82 °F 79 °F 88 °F (2007)
Min Temperature 66 °F 63 °F 45 °F (2010)
Cooling Degree Days 9    
Growing Degree Days 24 (Base 50)    
Moisture  
Dew Point 73 °F    
Average Humidity 91    
Maximum Humidity 100    
Minimum Humidity 74    
Precipitation  
Precipitation 0.00 in - - ()
Sea Level Pressure  
Sea Level Pressure 30.06 in    
Wind  
Wind Speed 5 mph (ENE)    
Max Wind Speed 9 mph    
Max Gust Speed -    
Visibility 10 miles    
Events Rain    
Averages and records for this station are not official NWS values.
T = Trace of Precipitation, MM = Missing Value Source: NWS Daily Summary

Daily Weather History Graph

Daily Weather History Graph

Search for Another Location

Airport:

Trip Planner

Search our weather history database for the weather conditions in past years. The results will help you decide how hot, cold, wet, or windy it might be!

Date:

Astronomy

Oct. 05, 2012 Rise Set
Actual Time 6:42 AM CDT 6:26 PM CDT
Civil Twilight 6:18 AM CDT 6:50 PM CDT
Nautical Twilight 5:51 AM CDT 7:18 PM CDT
Astronomical Twilight 5:23 AM CDT 7:46 PM CDT
Moon 10:08 PM CDT (10/5) 11:31 AM CDT (10/5)
Length of Visible Light 12h 31m
Length of Day
11h 43m
Waning Gibbous, 74% of the Moon is Illuminated
Oct 5
Waning Gibbous
Oct 8
Last Quarter
Oct 15
New
Oct 21
First Quarter
Oct 29
Full

Hourly Weather History & Observations

Time (CDT) Temp. Heat Index Dew Point Humidity Pressure Visibility Wind Dir Wind Speed Gust Speed Precip Events Conditions
12:55 AM 68.5 °F - 68.5 °F 100% 30.14 in 10.0 mi North 5.8 mph - N/A   Clear
1:55 AM 68.7 °F - 68.7 °F 100% 30.13 in 10.0 mi NNE 3.5 mph - N/A   Clear
2:55 AM 68.2 °F - 68.2 °F 100% 30.12 in 10.0 mi North 3.5 mph - N/A   Clear
3:55 AM 68.0 °F - 68.0 °F 100% 30.11 in 10.0 mi North 5.8 mph - N/A   Clear
4:55 AM 68.0 °F - 67.8 °F 99% 30.10 in 10.0 mi North 6.9 mph - N/A   Clear
5:55 AM 67.3 °F - 67.3 °F 100% 30.12 in 10.0 mi North 4.6 mph - N/A   Clear
6:55 AM 66.9 °F - 66.4 °F 98% 30.12 in 9.0 mi North 3.5 mph - N/A   Clear
7:55 AM 68.7 °F - 67.5 °F 96% 30.12 in 10.0 mi NE 5.8 mph - N/A   Partly Cloudy
8:26 AM 69.8 °F - 69.8 °F 100% 30.12 in 10.0 mi NNE 6.9 mph - N/A   Partly Cloudy
8:30 AM 69.8 °F - 69.8 °F 100% 30.13 in 10.0 mi NNE 5.8 mph - N/A   Partly Cloudy
8:55 AM 70.0 °F - 70.0 °F 100% 30.13 in 10.0 mi NNE 6.9 mph - N/A   Mostly Cloudy
8:58 AM 69.8 °F - 69.8 °F 100% 30.13 in 10.0 mi NNE 8.1 mph - N/A   Mostly Cloudy
9:12 AM 69.8 °F - 69.8 °F 100% 30.14 in 10.0 mi NNE 5.8 mph - N/A   Overcast
9:25 AM 71.6 °F - 71.6 °F 100% 30.13 in 10.0 mi NE 6.9 mph - N/A   Scattered Clouds
9:43 AM 71.6 °F - 71.6 °F 100% 30.14 in 10.0 mi NNE 5.8 mph - N/A   Partly Cloudy
9:55 AM 72.1 °F - 71.6 °F 98% 30.14 in 10.0 mi NE 5.8 mph - N/A   Partly Cloudy
9:57 AM 71.6 °F - 71.6 °F 100% 30.14 in 10.0 mi ENE 8.1 mph - N/A   Scattered Clouds
10:55 AM 74.5 °F - 72.5 °F 94% 30.13 in 10.0 mi NE 4.6 mph - N/A   Partly Cloudy
11:20 AM 75.2 °F - 73.4 °F 94% 30.13 in 10.0 mi NE 4.6 mph - N/A   Light Drizzle
11:55 AM 75.6 °F - 73.6 °F 94% 30.12 in 9.0 mi ENE 3.5 mph - 0.00 in Rain Light Rain
12:11 PM 75.2 °F - 73.4 °F 94% 30.11 in 10.0 mi NE 3.5 mph - N/A   Mostly Cloudy
12:18 PM 75.2 °F - 73.4 °F 94% 30.11 in 10.0 mi ENE 3.5 mph - N/A   Light Drizzle
12:28 PM 77.0 °F - 73.4 °F 89% 30.09 in 10.0 mi East 6.9 mph - N/A   Mostly Cloudy
12:55 PM 77.5 °F - 73.9 °F 89% 30.09 in 10.0 mi East 4.6 mph - 0.00 in   Mostly Cloudy
1:09 PM 77.0 °F - 73.4 °F 89% 30.08 in 10.0 mi ENE 4.6 mph - N/A Rain Light Rain
1:11 PM 77.0 °F - 73.4 °F 89% 30.08 in 10.0 mi ENE 6.9 mph - N/A   Overcast
1:12 PM 77.0 °F - 73.4 °F 89% 30.08 in 10.0 mi ENE 6.9 mph - N/A Rain Light Rain
1:19 PM 78.8 °F - 73.4 °F 83% 30.08 in 10.0 mi East 4.6 mph - N/A   Overcast
1:34 PM 78.8 °F - 73.4 °F 83% 30.07 in 10.0 mi ENE 3.5 mph - N/A   Light Drizzle
1:50 PM 80.6 °F 85.4 °F 73.4 °F 79% 30.06 in 10.0 mi Calm Calm - N/A   Scattered Clouds
1:53 PM 80.6 °F 85.4 °F 73.4 °F 79% 30.06 in 10.0 mi Calm Calm - N/A   Light Drizzle
1:55 PM 80.1 °F 84.5 °F 73.8 °F 81% 30.06 in 10.0 mi East 4.6 mph - 0.00 in   Light Drizzle
2:05 PM 78.8 °F - 73.4 °F 83% 30.05 in 10.0 mi Calm Calm - N/A   Light Drizzle
2:39 PM 80.6 °F 86.2 °F 75.2 °F 84% 30.03 in 10.0 mi NE 3.5 mph - N/A   Overcast
2:55 PM 80.8 °F 86.1 °F 74.3 °F 81% 30.02 in 10.0 mi East 5.8 mph - 0.00 in   Mostly Cloudy
3:02 PM 80.6 °F 85.4 °F 73.4 °F 79% 30.02 in 10.0 mi East 5.8 mph - N/A   Scattered Clouds
3:07 PM 82.4 °F 88.2 °F 73.4 °F 74% 30.02 in 10.0 mi East 4.6 mph - N/A   Light Drizzle
3:11 PM 82.4 °F 88.2 °F 73.4 °F 74% 30.01 in 10.0 mi East 4.6 mph - N/A   Partly Cloudy
3:22 PM 82.4 °F 89.5 °F 75.2 °F 79% 30.01 in 10.0 mi ESE 5.8 mph - N/A Rain Light Rain
3:50 PM 82.4 °F 88.2 °F 73.4 °F 74% 30.01 in 10.0 mi ESE 6.9 mph - N/A   Partly Cloudy
3:55 PM 82.2 °F 88.3 °F 74.1 °F 76% 30.01 in 10.0 mi East 8.1 mph - 0.00 in   Clear
3:57 PM 82.4 °F 89.5 °F 75.2 °F 79% 30.01 in 10.0 mi Variable 6.9 mph - N/A   Light Drizzle
4:05 PM 82.4 °F 89.5 °F 75.2 °F 79% 30.01 in 10.0 mi SSE 9.2 mph - N/A   Partly Cloudy
4:19 PM 82.4 °F 89.5 °F 75.2 °F 79% 30.01 in 10.0 mi SE 8.1 mph - N/A Rain Light Rain
4:23 PM 82.4 °F 88.2 °F 73.4 °F 74% 30.00 in 10.0 mi SE 9.2 mph - N/A   Clear
4:27 PM 82.4 °F 88.2 °F 73.4 °F 74% 30.00 in 10.0 mi SE 8.1 mph - N/A   Light Drizzle
4:29 PM 82.4 °F 89.5 °F 75.2 °F 79% 30.00 in 10.0 mi SSE 8.1 mph - N/A   Clear
4:55 PM 80.4 °F 85.8 °F 75.0 °F 84% 30.01 in 10.0 mi SSE 6.9 mph - 0.00 in   Clear
5:06 PM 80.6 °F 86.2 °F 75.2 °F 84% 30.01 in 10.0 mi SSE 8.1 mph - N/A Rain Light Rain
5:21 PM 80.6 °F 86.2 °F 75.2 °F 84% 30.01 in 10.0 mi South 8.1 mph - N/A   Clear
5:55 PM 78.6 °F - 74.8 °F 88% 30.00 in 10.0 mi South 6.9 mph - 0.00 in   Clear
6:38 PM 77.0 °F - 75.2 °F 94% 30.00 in 10.0 mi SSE 3.5 mph - N/A   Light Drizzle
6:55 PM 76.6 °F - 74.3 °F 92% 30.00 in 10.0 mi SSE 3.5 mph - 0.00 in   Light Drizzle
7:02 PM 77.0 °F - 73.4 °F 89% 30.00 in 10.0 mi Calm Calm - N/A   Clear
7:06 PM 77.0 °F - 73.4 °F 89% 30.00 in 10.0 mi Calm Calm - N/A Rain Light Rain
7:28 PM 77.0 °F - 73.4 °F 89% 30.01 in 10.0 mi Calm Calm - N/A   Clear
7:55 PM 76.3 °F - 74.1 °F 93% 30.01 in 10.0 mi Calm Calm - 0.00 in   Clear
8:20 PM 77.0 °F - 75.2 °F 94% 30.01 in 10.0 mi Calm Calm - N/A Rain Light Rain
8:25 PM 75.2 °F - 73.4 °F 94% 30.01 in 10.0 mi Calm Calm - N/A   Clear
8:29 PM 73.4 °F - 73.4 °F 100% 30.01 in 10.0 mi Calm Calm - N/A Rain Light Rain
8:39 PM 73.4 °F - 73.4 °F 100% 30.01 in 10.0 mi Calm Calm - N/A   Clear
8:55 PM 72.9 °F - 72.7 °F 99% 30.02 in 10.0 mi North 3.5 mph - 0.00 in   Clear
9:08 PM 71.6 °F - 71.6 °F 100% 30.02 in 10.0 mi North 3.5 mph - N/A   Light Drizzle
9:18 PM 71.6 °F - 71.6 °F 100% 30.03 in 10.0 mi North 3.5 mph - N/A   Clear
9:55 PM 72.0 °F - 72.0 °F 100% 30.03 in 10.0 mi Calm Calm - 0.00 in   Clear
10:15 PM 71.6 °F - 71.6 °F 100% 30.03 in 10.0 mi Calm Calm - N/A Rain Light Rain
10:25 PM 71.6 °F - 71.6 °F 100% 30.03 in 10.0 mi NNE 3.5 mph - N/A   Clear
10:52 PM 71.6 °F - 71.6 °F 100% 30.03 in 10.0 mi NNE 3.5 mph - N/A   Mostly Cloudy
10:55 PM 71.2 °F - 71.2 °F 100% 30.03 in 10.0 mi Calm Calm - 0.00 in   Mostly Cloudy
11:10 PM 71.6 °F - 71.6 °F 100% 30.03 in 10.0 mi Calm Calm - N/A   Scattered Clouds
11:55 PM 71.4 °F - 71.4 °F 100% 30.02 in 10.0 mi North 3.5 mph - N/A   Clear